3PA7 weather

Nason Medical Center LLC Heliport
Roaring Spring, Pennsylvania, United States

Public forecast

Using degrees Fahrenheit for public forecast. Weather courtesy of forecast.io.

METAR (pilot weather report)

Closest report is Altoona Blair County Airport, 4.1 nm (7.6 km) SE. Retrieved 2019/05/20 22:53 UTC (1 hour ago):

KAOO 202253Z AUTO 27020G25KT 10SM SCT050 BKN070 23/12 A2987 RMK AO2 PK WND 28028/2155 SLP105 T02280117

TAF (pilot weather forecast)

Closest forecast is Altoona Blair County Airport, 4.1 nm (7.6 km) SE. Retrieved 2019/05/20 18:45 UTC (5 hours ago):

TAF KAOO 201743Z 2018/2118 29017G25KT P6SM VCSH FEW045 FM201900 27018G28KT P6SM SCT050 FM210200 31011KT P6SM BKN035 FM211500 34011G18KT P6SM SKC